Upstream stations:
Downstream station:
SHEF ID: BKDO2 Broken Bow Lake
STATION TYPE: RESERVOIR
Flood Pool: Bottom = 599.50, Top = 627.50
PRECIP ELEVATION STORAGE TW-ELEV INFLOW RELEASE AIR-TEMP WIND-DIRWIND-SPEED REL-HUMID SOLAR-RAD VOLTAGE BAT-LOAD
in ft ac-ft ft cfs cfs F deg mph % W/m2 volt volt
Ccp-Rev Ccp-Rev Ccp-Rev Ccp-Rev Rev-Regi Rev-Regi Ccp-Rev Ccp-Rev Ccp-Rev Ccp-Rev Ccp-Rev Ccp-Rev Ccp-Rev
(US/Central)
01/23 00:00 0.00 591.91 796685 401.50 128 101 34.20 335.00 0.60 73.64 0.00 13.13 12.73
01/23 01:00 0.00 591.92 796810 401.50 134 101 32.90 341.10 0.40 83.09 0.00 13.12 12.71
01/23 02:00 0.00 591.93 796935 401.50 134 101 33.42 306.20 0.60 80.92 0.00 13.13 12.71
01/23 03:00 0.00 591.92 796810 401.50 134 101 33.49 335.00 0.70 89.10 0.00 13.13 12.71
01/23 04:00 0.00 591.94 797060 401.50 16 101 35.74 333.50 0.80 90.84 0.00 13.13 12.65
01/23 05:00 0.00 591.91 796685 401.50 112 101 34.75 320.10 0.50 91.16 0.00 13.13 12.71
01/23 06:00 0.00 591.91 796685 401.50 228 101 31.91 165.80 0.70 90.39 0.00 13.13 12.72
01/23 07:00 0.00 591.92 796810 401.50 368 101 31.35 177.40 1.80 84.08 0.00 13.13 12.71
01/23 08:00 0.00 591.93 796935 401.50 368 101 32.00 160.00 1.50 81.27 0.30 13.13 12.72
01/23 09:00 0.00 591.94 797060 401.50 363 101 35.31 72.10 0.30 65.60 16.10 13.14 12.71
01/23 10:00 0.00 591.91 796685 401.50 265 101 41.40 266.40 1.30 50.48 275.40 13.14 12.73
01/23 11:00 0.00 591.93 796935 401.50 144 101 46.89 229.20 2.40 43.23 462.60 13.14 12.73
01/23 12:00 0.00 591.90 796560 401.50 4 101 52.23 222.80 1.60 37.92 555.00 14.56 12.75
01/23 13:00 0.00 591.93 796935 401.50 4 101 56.26 33.40 1.20 36.88 582.10 14.51 13.01
01/23 14:00 0.00 591.92 796810 401.50 4 101 60.64 219.50 1.80 33.29 548.40 14.03 13.03
01/23 15:00 0.00 591.92 796810 401.50 0 101 63.97 211.70 2.50 30.55 455.30 13.96 12.97
01/23 16:00 0.00 591.91 796685 401.50 0 101 65.52 219.10 2.30 29.72 284.70 13.90 12.93
01/23 17:00 0.00 591.92 796810 401.50 0 101 65.19 216.60 2.00 30.13 105.90 13.19 12.90
01/23 18:00 0.00 591.91 796685 401.50 0 101 61.97 186.00 1.00 34.42 6.20 13.14 12.75
01/23 19:00 0.00 591.93 796935 401.50 0 101 57.96 143.80 1.50 41.03 0.00 13.13 12.70
01/23 20:00 0.00 591.93 796935 401.50 0 101 53.78 354.70 0.90 55.68 0.00 13.13 12.70
01/23 21:00 0.00 591.92 796810 401.50 0 101 49.28 319.30 0.90 71.44 0.00 13.14 12.71
01/23 22:00 0.00 591.92 796810 401.50 0 101 49.39 94.30 1.00 80.01 0.00 13.14 12.71
01/23 23:00 0.00 591.92 796810 401.50 0 101 48.06 96.30 0.50 84.17 0.00 13.14 12.70